sensor_id;sensor_type;location;lat;lon;timestamp;temperature;humidity
10964;DHT22;5534;48.784;9.190;2023-12-20T00:01:47;7.90;99.90
10964;DHT22;5534;48.784;9.190;2023-12-20T00:04:13;8.10;99.90
10964;DHT22;5534;48.784;9.190;2023-12-20T00:06:39;8.10;99.90
10964;DHT22;5534;48.784;9.190;2023-12-20T00:09:05;8.10;99.90
10964;DHT22;5534;48.784;9.190;2023-12-20T00:11:30;8.00;99.90
10964;DHT22;5534;48.784;9.190;2023-12-20T00:13:56;8.20;99.90
10964;DHT22;5534;48.784;9.190;2023-12-20T00:16:22;8.20;99.90
10964;DHT22;5534;48.784;9.190;2023-12-20T00:18:47;8.20;99.90
10964;DHT22;5534;48.784;9.190;2023-12-20T00:21:13;8.30;99.90
10964;DHT22;5534;48.784;9.190;2023-12-20T00:23:39;8.20;99.90
10964;DHT22;5534;48.784;9.190;2023-12-20T00:26:05;8.30;99.90
10964;DHT22;5534;48.784;9.190;2023-12-20T00:28:30;8.10;99.90
10964;DHT22;5534;48.784;9.190;2023-12-20T00:30:56;8.20;99.90
10964;DHT22;5534;48.784;9.190;2023-12-20T00:33:22;8.30;99.90
10964;DHT22;5534;48.784;9.190;2023-12-20T00:35:48;8.20;99.90
10964;DHT22;5534;48.784;9.190;2023-12-20T00:38:13;8.20;99.90
10964;DHT22;5534;48.784;9.190;2023-12-20T00:40:40;8.20;99.90
10964;DHT22;5534;48.784;9.190;2023-12-20T00:43:05;8.30;99.90
10964;DHT22;5534;48.784;9.190;2023-12-20T00:45:31;8.40;99.90
10964;DHT22;5534;48.784;9.190;2023-12-20T00:47:57;8.30;99.90
10964;DHT22;5534;48.784;9.190;2023-12-20T00:50:24;8.20;99.90
10964;DHT22;5534;48.784;9.190;2023-12-20T00:52:50;8.30;99.90
10964;DHT22;5534;48.784;9.190;2023-12-20T00:55:17;8.20;99.90
10964;DHT22;5534;48.784;9.190;2023-12-20T00:57:44;8.30;99.90
10964;DHT22;5534;48.784;9.190;2023-12-20T01:00:10;8.30;99.90
10964;DHT22;5534;48.784;9.190;2023-12-20T01:02:36;8.20;99.90
10964;DHT22;5534;48.784;9.190;2023-12-20T01:05:02;8.20;99.90
10964;DHT22;5534;48.784;9.190;2023-12-20T01:07:28;8.30;99.90
10964;DHT22;5534;48.784;9.190;2023-12-20T01:09:54;8.30;99.90
10964;DHT22;5534;48.784;9.190;2023-12-20T01:12:19;8.20;99.90
10964;DHT22;5534;48.784;9.190;2023-12-20T01:14:46;8.30;99.90
10964;DHT22;5534;48.784;9.190;2023-12-20T01:17:12;8.20;99.90
10964;DHT22;5534;48.784;9.190;2023-12-20T01:19:38;8.20;99.90
10964;DHT22;5534;48.784;9.190;2023-12-20T01:22:04;8.00;99.90
10964;DHT22;5534;48.784;9.190;2023-12-20T01:24:29;8.00;99.90
10964;DHT22;5534;48.784;9.190;2023-12-20T01:26:55;8.00;99.90
10964;DHT22;5534;48.784;9.190;2023-12-20T01:29:21;8.10;99.90
10964;DHT22;5534;48.784;9.190;2023-12-20T01:31:46;8.00;99.90
10964;DHT22;5534;48.784;9.190;2023-12-20T01:34:12;7.80;99.90
10964;DHT22;5534;48.784;9.190;2023-12-20T01:36:38;7.80;99.90
10964;DHT22;5534;48.784;9.190;2023-12-20T01:39:04;7.90;99.90
10964;DHT22;5534;48.784;9.190;2023-12-20T01:41:29;7.90;99.90
10964;DHT22;5534;48.784;9.190;2023-12-20T01:43:55;7.90;99.90
10964;DHT22;5534;48.784;9.190;2023-12-20T01:46:21;7.90;99.90
10964;DHT22;5534;48.784;9.190;2023-12-20T01:48:48;8.10;99.90
10964;DHT22;5534;48.784;9.190;2023-12-20T01:51:14;8.00;99.90
10964;DHT22;5534;48.784;9.190;2023-12-20T01:53:41;8.00;99.90
10964;DHT22;5534;48.784;9.190;2023-12-20T01:56:08;8.10;99.90
10964;DHT22;5534;48.784;9.190;2023-12-20T01:58:34;8.00;99.90
10964;DHT22;5534;48.784;9.190;2023-12-20T02:01:00;8.00;99.90
10964;DHT22;5534;48.784;9.190;2023-12-20T02:03:26;7.90;99.90
10964;DHT22;5534;48.784;9.190;2023-12-20T02:05:52;8.00;99.90
10964;DHT22;5534;48.784;9.190;2023-12-20T02:08:18;8.00;99.90
10964;DHT22;5534;48.784;9.190;2023-12-20T02:10:44;7.80;99.90
10964;DHT22;5534;48.784;9.190;2023-12-20T02:13:10;7.80;99.90
10964;DHT22;5534;48.784;9.190;2023-12-20T02:15:36;7.90;99.90
10964;DHT22;5534;48.784;9.190;2023-12-20T02:18:03;7.90;99.90
10964;DHT22;5534;48.784;9.190;2023-12-20T02:20:29;7.90;99.90
10964;DHT22;5534;48.784;9.190;2023-12-20T02:22:55;7.90;99.90
10964;DHT22;5534;48.784;9.190;2023-12-20T02:25:21;8.00;99.90
10964;DHT22;5534;48.784;9.190;2023-12-20T02:27:47;8.00;99.90
10964;DHT22;5534;48.784;9.190;2023-12-20T02:30:14;8.10;99.90
10964;DHT22;5534;48.784;9.190;2023-12-20T02:32:40;8.00;99.90
10964;DHT22;5534;48.784;9.190;2023-12-20T02:35:06;8.00;99.90
10964;DHT22;5534;48.784;9.190;2023-12-20T02:37:33;8.10;99.90
10964;DHT22;5534;48.784;9.190;2023-12-20T02:39:59;8.00;99.90
10964;DHT22;5534;48.784;9.190;2023-12-20T02:42:24;8.10;99.90
10964;DHT22;5534;48.784;9.190;2023-12-20T02:44:50;8.00;99.90
10964;DHT22;5534;48.784;9.190;2023-12-20T02:47:16;8.00;99.90
10964;DHT22;5534;48.784;9.190;2023-12-20T02:49:41;8.00;99.90
10964;DHT22;5534;48.784;9.190;2023-12-20T02:52:07;7.90;99.90
10964;DHT22;5534;48.784;9.190;2023-12-20T02:54:33;7.90;99.90
10964;DHT22;5534;48.784;9.190;2023-12-20T02:56:59;7.90;99.90
10964;DHT22;5534;48.784;9.190;2023-12-20T02:59:24;7.90;99.90
10964;DHT22;5534;48.784;9.190;2023-12-20T03:01:53;7.90;99.90
10964;DHT22;5534;48.784;9.190;2023-12-20T03:04:18;7.80;99.90
10964;DHT22;5534;48.784;9.190;2023-12-20T03:06:44;7.90;99.90
10964;DHT22;5534;48.784;9.190;2023-12-20T03:09:10;7.80;99.90
10964;DHT22;5534;48.784;9.190;2023-12-20T03:11:36;7.90;99.90
10964;DHT22;5534;48.784;9.190;2023-12-20T03:14:01;8.10;99.90
10964;DHT22;5534;48.784;9.190;2023-12-20T03:16:27;8.10;99.90
10964;DHT22;5534;48.784;9.190;2023-12-20T03:18:53;8.20;99.90
10964;DHT22;5534;48.784;9.190;2023-12-20T03:21:19;8.10;99.90
10964;DHT22;5534;48.784;9.190;2023-12-20T03:23:45;8.10;99.90
10964;DHT22;5534;48.784;9.190;2023-12-20T03:26:11;8.00;99.90
10964;DHT22;5534;48.784;9.190;2023-12-20T03:28:36;8.00;99.90
10964;DHT22;5534;48.784;9.190;2023-12-20T03:31:03;7.90;99.90
10964;DHT22;5534;48.784;9.190;2023-12-20T03:33:29;7.90;99.90
10964;DHT22;5534;48.784;9.190;2023-12-20T03:35:55;8.00;99.90
10964;DHT22;5534;48.784;9.190;2023-12-20T03:38:21;8.00;99.90
10964;DHT22;5534;48.784;9.190;2023-12-20T03:40:47;7.90;99.90
10964;DHT22;5534;48.784;9.190;2023-12-20T03:43:13;7.90;99.90
10964;DHT22;5534;48.784;9.190;2023-12-20T03:45:38;7.90;99.90
10964;DHT22;5534;48.784;9.190;2023-12-20T03:48:05;7.80;99.90
10964;DHT22;5534;48.784;9.190;2023-12-20T03:50:31;7.90;99.90
10964;DHT22;5534;48.784;9.190;2023-12-20T03:52:56;7.90;99.90
10964;DHT22;5534;48.784;9.190;2023-12-20T03:55:22;7.90;99.90
10964;DHT22;5534;48.784;9.190;2023-12-20T03:57:48;7.90;99.90
10964;DHT22;5534;48.784;9.190;2023-12-20T04:00:13;7.90;99.90
10964;DHT22;5534;48.784;9.190;2023-12-20T04:02:40;8.00;99.90
10964;DHT22;5534;48.784;9.190;2023-12-20T04:05:06;8.00;99.90
10964;DHT22;5534;48.784;9.190;2023-12-20T04:07:33;8.00;99.90
10964;DHT22;5534;48.784;9.190;2023-12-20T04:09:58;8.10;99.90
10964;DHT22;5534;48.784;9.190;2023-12-20T04:12:24;8.10;99.90
10964;DHT22;5534;48.784;9.190;2023-12-20T04:14:50;8.10;99.90
10964;DHT22;5534;48.784;9.190;2023-12-20T04:17:16;8.00;99.90
10964;DHT22;5534;48.784;9.190;2023-12-20T04:19:42;8.10;99.90
10964;DHT22;5534;48.784;9.190;2023-12-20T04:22:08;8.00;99.90
10964;DHT22;5534;48.784;9.190;2023-12-20T04:24:34;8.00;99.90
10964;DHT22;5534;48.784;9.190;2023-12-20T04:27:00;8.10;99.90
10964;DHT22;5534;48.784;9.190;2023-12-20T04:29:26;8.00;99.90
10964;DHT22;5534;48.784;9.190;2023-12-20T04:31:52;8.00;99.90
10964;DHT22;5534;48.784;9.190;2023-12-20T04:34:18;8.10;99.90
10964;DHT22;5534;48.784;9.190;2023-12-20T04:36:44;8.00;99.90
10964;DHT22;5534;48.784;9.190;2023-12-20T04:39:13;7.90;99.90
10964;DHT22;5534;48.784;9.190;2023-12-20T04:41:40;7.70;99.90
10964;DHT22;5534;48.784;9.190;2023-12-20T04:44:06;7.70;99.90
10964;DHT22;5534;48.784;9.190;2023-12-20T04:46:32;7.80;99.90
10964;DHT22;5534;48.784;9.190;2023-12-20T04:48:58;7.60;99.90
10964;DHT22;5534;48.784;9.190;2023-12-20T04:51:23;7.80;99.90
10964;DHT22;5534;48.784;9.190;2023-12-20T04:53:49;7.80;99.90
10964;DHT22;5534;48.784;9.190;2023-12-20T04:56:15;7.80;99.90
10964;DHT22;5534;48.784;9.190;2023-12-20T04:58:42;7.90;99.90
10964;DHT22;5534;48.784;9.190;2023-12-20T05:01:08;7.90;99.90
10964;DHT22;5534;48.784;9.190;2023-12-20T05:03:35;8.00;99.90
10964;DHT22;5534;48.784;9.190;2023-12-20T05:06:01;8.00;99.90
10964;DHT22;5534;48.784;9.190;2023-12-20T05:08:26;8.00;99.90
10964;DHT22;5534;48.784;9.190;2023-12-20T05:10:55;7.90;99.90
10964;DHT22;5534;48.784;9.190;2023-12-20T05:13:21;7.90;99.90
10964;DHT22;5534;48.784;9.190;2023-12-20T05:15:47;7.80;99.90
10964;DHT22;5534;48.784;9.190;2023-12-20T05:18:13;7.90;99.90
10964;DHT22;5534;48.784;9.190;2023-12-20T05:20:39;8.00;99.90
10964;DHT22;5534;48.784;9.190;2023-12-20T05:23:05;7.90;99.90
10964;DHT22;5534;48.784;9.190;2023-12-20T05:25:31;7.90;99.90
10964;DHT22;5534;48.784;9.190;2023-12-20T05:27:57;7.90;99.90
10964;DHT22;5534;48.784;9.190;2023-12-20T05:30:23;7.90;99.90
10964;DHT22;5534;48.784;9.190;2023-12-20T05:32:49;7.80;99.90
10964;DHT22;5534;48.784;9.190;2023-12-20T05:35:14;7.80;99.90
10964;DHT22;5534;48.784;9.190;2023-12-20T05:37:41;7.80;99.90
10964;DHT22;5534;48.784;9.190;2023-12-20T05:40:07;7.90;99.90
10964;DHT22;5534;48.784;9.190;2023-12-20T05:42:36;7.90;99.90
10964;DHT22;5534;48.784;9.190;2023-12-20T05:45:04;7.90;99.90
10964;DHT22;5534;48.784;9.190;2023-12-20T05:47:29;7.90;99.90
10964;DHT22;5534;48.784;9.190;2023-12-20T05:49:55;8.00;99.90
10964;DHT22;5534;48.784;9.190;2023-12-20T05:52:21;8.00;99.90
10964;DHT22;5534;48.784;9.190;2023-12-20T05:54:47;8.00;99.90
10964;DHT22;5534;48.784;9.190;2023-12-20T05:57:13;7.70;99.90
10964;DHT22;5534;48.784;9.190;2023-12-20T05:59:39;7.80;99.90
10964;DHT22;5534;48.784;9.190;2023-12-20T06:02:05;7.80;99.90
10964;DHT22;5534;48.784;9.190;2023-12-20T06:04:31;7.90;99.90
10964;DHT22;5534;48.784;9.190;2023-12-20T06:06:57;7.90;99.90
10964;DHT22;5534;48.784;9.190;2023-12-20T06:09:23;7.90;99.90
10964;DHT22;5534;48.784;9.190;2023-12-20T06:11:49;8.00;99.90
10964;DHT22;5534;48.784;9.190;2023-12-20T06:14:15;8.00;99.90
10964;DHT22;5534;48.784;9.190;2023-12-20T06:16:40;8.00;99.90
10964;DHT22;5534;48.784;9.190;2023-12-20T06:19:06;8.00;99.90
10964;DHT22;5534;48.784;9.190;2023-12-20T06:21:32;7.90;99.90
10964;DHT22;5534;48.784;9.190;2023-12-20T06:23:59;8.00;99.90
10964;DHT22;5534;48.784;9.190;2023-12-20T06:26:25;8.00;99.90
10964;DHT22;5534;48.784;9.190;2023-12-20T06:28:51;8.00;99.90
10964;DHT22;5534;48.784;9.190;2023-12-20T06:31:16;7.90;99.90
10964;DHT22;5534;48.784;9.190;2023-12-20T06:33:43;7.90;99.90
10964;DHT22;5534;48.784;9.190;2023-12-20T06:36:12;8.00;99.90
10964;DHT22;5534;48.784;9.190;2023-12-20T06:38:38;8.00;99.90
10964;DHT22;5534;48.784;9.190;2023-12-20T06:41:04;7.90;99.90
10964;DHT22;5534;48.784;9.190;2023-12-20T06:43:30;7.90;99.90
10964;DHT22;5534;48.784;9.190;2023-12-20T06:45:57;8.00;99.90
10964;DHT22;5534;48.784;9.190;2023-12-20T06:48:22;8.10;99.90
10964;DHT22;5534;48.784;9.190;2023-12-20T06:50:48;8.10;99.90
10964;DHT22;5534;48.784;9.190;2023-12-20T06:53:14;8.00;99.90
10964;DHT22;5534;48.784;9.190;2023-12-20T06:55:39;7.90;99.90
10964;DHT22;5534;48.784;9.190;2023-12-20T06:58:05;7.90;99.90
10964;DHT22;5534;48.784;9.190;2023-12-20T07:00:32;8.00;99.90
10964;DHT22;5534;48.784;9.190;2023-12-20T07:02:58;8.10;99.90
10964;DHT22;5534;48.784;9.190;2023-12-20T07:05:24;7.90;99.90
10964;DHT22;5534;48.784;9.190;2023-12-20T07:07:50;8.10;99.90
10964;DHT22;5534;48.784;9.190;2023-12-20T07:10:16;7.90;99.90
10964;DHT22;5534;48.784;9.190;2023-12-20T07:12:41;7.90;99.90
10964;DHT22;5534;48.784;9.190;2023-12-20T07:15:08;8.10;99.90
10964;DHT22;5534;48.784;9.190;2023-12-20T07:17:34;8.20;99.90
10964;DHT22;5534;48.784;9.190;2023-12-20T07:20:00;8.20;99.90
10964;DHT22;5534;48.784;9.190;2023-12-20T07:22:33;8.10;99.90
10964;DHT22;5534;48.784;9.190;2023-12-20T07:24:59;8.20;99.90
10964;DHT22;5534;48.784;9.190;2023-12-20T07:27:27;8.20;99.90
10964;DHT22;5534;48.784;9.190;2023-12-20T07:29:53;8.20;99.90
10964;DHT22;5534;48.784;9.190;2023-12-20T07:32:19;8.20;99.90
10964;DHT22;5534;48.784;9.190;2023-12-20T07:34:45;8.10;99.90
10964;DHT22;5534;48.784;9.190;2023-12-20T07:37:10;7.80;99.90
10964;DHT22;5534;48.784;9.190;2023-12-20T07:39:40;7.80;99.90
10964;DHT22;5534;48.784;9.190;2023-12-20T07:42:09;7.70;99.90
10964;DHT22;5534;48.784;9.190;2023-12-20T07:44:35;7.80;99.90
10964;DHT22;5534;48.784;9.190;2023-12-20T07:47:04;8.10;99.90
10964;DHT22;5534;48.784;9.190;2023-12-20T07:49:33;8.10;99.90
10964;DHT22;5534;48.784;9.190;2023-12-20T07:51:58;8.10;99.90
10964;DHT22;5534;48.784;9.190;2023-12-20T07:54:24;8.10;99.90
10964;DHT22;5534;48.784;9.190;2023-12-20T07:56:50;8.00;99.90
10964;DHT22;5534;48.784;9.190;2023-12-20T07:59:16;8.00;99.90
10964;DHT22;5534;48.784;9.190;2023-12-20T08:01:41;7.70;99.90
10964;DHT22;5534;48.784;9.190;2023-12-20T08:04:08;7.90;99.90
10964;DHT22;5534;48.784;9.190;2023-12-20T08:06:34;8.00;99.90
10964;DHT22;5534;48.784;9.190;2023-12-20T08:08:59;8.00;99.90
10964;DHT22;5534;48.784;9.190;2023-12-20T08:11:25;7.90;99.90
10964;DHT22;5534;48.784;9.190;2023-12-20T08:13:51;8.00;99.90
10964;DHT22;5534;48.784;9.190;2023-12-20T08:16:16;8.00;99.90
10964;DHT22;5534;48.784;9.190;2023-12-20T08:18:43;7.70;99.90
10964;DHT22;5534;48.784;9.190;2023-12-20T08:21:12;7.90;99.90
10964;DHT22;5534;48.784;9.190;2023-12-20T08:23:38;8.00;99.90
10964;DHT22;5534;48.784;9.190;2023-12-20T08:26:07;7.90;99.90
10964;DHT22;5534;48.784;9.190;2023-12-20T08:28:33;8.10;99.90
10964;DHT22;5534;48.784;9.190;2023-12-20T08:31:00;7.80;99.90
10964;DHT22;5534;48.784;9.190;2023-12-20T08:33:26;7.80;99.90
10964;DHT22;5534;48.784;9.190;2023-12-20T08:35:51;7.90;99.90
10964;DHT22;5534;48.784;9.190;2023-12-20T08:38:17;8.00;99.90
10964;DHT22;5534;48.784;9.190;2023-12-20T08:40:44;8.00;99.90
10964;DHT22;5534;48.784;9.190;2023-12-20T08:43:10;7.90;99.90
10964;DHT22;5534;48.784;9.190;2023-12-20T08:45:35;8.00;99.90
10964;DHT22;5534;48.784;9.190;2023-12-20T08:48:01;8.10;99.90
10964;DHT22;5534;48.784;9.190;2023-12-20T08:50:29;8.10;99.90
10964;DHT22;5534;48.784;9.190;2023-12-20T08:52:55;8.10;99.90
10964;DHT22;5534;48.784;9.190;2023-12-20T08:55:20;7.90;99.90
10964;DHT22;5534;48.784;9.190;2023-12-20T08:57:46;7.90;99.90
10964;DHT22;5534;48.784;9.190;2023-12-20T09:00:13;7.90;99.90
10964;DHT22;5534;48.784;9.190;2023-12-20T09:02:39;7.70;99.90
10964;DHT22;5534;48.784;9.190;2023-12-20T09:05:05;7.80;99.90
10964;DHT22;5534;48.784;9.190;2023-12-20T09:07:31;7.70;99.90
10964;DHT22;5534;48.784;9.190;2023-12-20T09:09:58;7.50;99.90
10964;DHT22;5534;48.784;9.190;2023-12-20T09:12:24;7.40;99.90
10964;DHT22;5534;48.784;9.190;2023-12-20T09:14:51;7.50;99.90
10964;DHT22;5534;48.784;9.190;2023-12-20T09:17:18;7.60;99.90
10964;DHT22;5534;48.784;9.190;2023-12-20T09:19:44;7.60;99.90
10964;DHT22;5534;48.784;9.190;2023-12-20T09:22:11;7.60;99.90
10964;DHT22;5534;48.784;9.190;2023-12-20T09:24:37;7.60;99.90
10964;DHT22;5534;48.784;9.190;2023-12-20T09:27:04;7.60;99.90
10964;DHT22;5534;48.784;9.190;2023-12-20T09:29:31;7.70;99.90
10964;DHT22;5534;48.784;9.190;2023-12-20T09:31:57;7.70;99.90
10964;DHT22;5534;48.784;9.190;2023-12-20T09:34:23;7.90;99.90
10964;DHT22;5534;48.784;9.190;2023-12-20T09:36:49;7.90;99.90
10964;DHT22;5534;48.784;9.190;2023-12-20T09:39:17;7.90;99.90
10964;DHT22;5534;48.784;9.190;2023-12-20T09:42:10;7.80;99.90
10964;DHT22;5534;48.784;9.190;2023-12-20T09:44:37;7.70;99.90
10964;DHT22;5534;48.784;9.190;2023-12-20T09:47:06;7.90;99.90
10964;DHT22;5534;48.784;9.190;2023-12-20T09:49:33;7.60;99.90
10964;DHT22;5534;48.784;9.190;2023-12-20T09:52:00;7.60;99.90
10964;DHT22;5534;48.784;9.190;2023-12-20T09:54:27;7.70;99.90
10964;DHT22;5534;48.784;9.190;2023-12-20T09:56:54;7.70;99.90
10964;DHT22;5534;48.784;9.190;2023-12-20T09:59:20;7.70;99.90
10964;DHT22;5534;48.784;9.190;2023-12-20T10:01:46;7.80;99.90
10964;DHT22;5534;48.784;9.190;2023-12-20T10:04:12;7.80;99.90
10964;DHT22;5534;48.784;9.190;2023-12-20T10:06:42;7.90;99.90
10964;DHT22;5534;48.784;9.190;2023-12-20T10:09:09;8.00;99.90
10964;DHT22;5534;48.784;9.190;2023-12-20T10:11:39;7.70;99.90
10964;DHT22;5534;48.784;9.190;2023-12-20T10:14:10;7.80;99.90
10964;DHT22;5534;48.784;9.190;2023-12-20T10:16:36;8.10;99.90
10964;DHT22;5534;48.784;9.190;2023-12-20T10:19:02;8.40;99.90
10964;DHT22;5534;48.784;9.190;2023-12-20T10:21:28;8.00;99.90
10964;DHT22;5534;48.784;9.190;2023-12-20T10:23:55;8.20;99.90
10964;DHT22;5534;48.784;9.190;2023-12-20T10:26:22;8.20;99.90
10964;DHT22;5534;48.784;9.190;2023-12-20T10:28:59;8.30;99.90
10964;DHT22;5534;48.784;9.190;2023-12-20T10:31:33;8.30;99.90
10964;DHT22;5534;48.784;9.190;2023-12-20T10:34:00;8.30;99.90
10964;DHT22;5534;48.784;9.190;2023-12-20T10:36:27;8.30;99.90
10964;DHT22;5534;48.784;9.190;2023-12-20T10:38:54;8.20;99.90
10964;DHT22;5534;48.784;9.190;2023-12-20T10:43:51;8.30;99.90
10964;DHT22;5534;48.784;9.190;2023-12-20T10:46:19;8.30;99.90
10964;DHT22;5534;48.784;9.190;2023-12-20T10:48:45;8.40;99.90
10964;DHT22;5534;48.784;9.190;2023-12-20T10:51:14;8.20;99.90
10964;DHT22;5534;48.784;9.190;2023-12-20T10:53:43;8.00;99.90
10964;DHT22;5534;48.784;9.190;2023-12-20T10:56:12;8.10;99.90
10964;DHT22;5534;48.784;9.190;2023-12-20T10:58:42;8.00;99.90
10964;DHT22;5534;48.784;9.190;2023-12-20T11:01:13;7.90;99.90
10964;DHT22;5534;48.784;9.190;2023-12-20T11:03:45;8.10;99.90
10964;DHT22;5534;48.784;9.190;2023-12-20T11:09:24;8.10;99.90
10964;DHT22;5534;48.784;9.190;2023-12-20T11:14:54;7.90;99.90
10964;DHT22;5534;48.784;9.190;2023-12-20T11:17:28;8.10;99.90
10964;DHT22;5534;48.784;9.190;2023-12-20T11:22:27;8.10;99.90
10964;DHT22;5534;48.784;9.190;2023-12-20T11:27:31;8.30;99.90
10964;DHT22;5534;48.784;9.190;2023-12-20T11:29:58;8.30;99.90
10964;DHT22;5534;48.784;9.190;2023-12-20T11:34:51;8.10;99.90
10964;DHT22;5534;48.784;9.190;2023-12-20T11:37:19;8.10;99.90
10964;DHT22;5534;48.784;9.190;2023-12-20T11:39:53;8.30;99.90
10964;DHT22;5534;48.784;9.190;2023-12-20T11:42:20;8.40;99.90
10964;DHT22;5534;48.784;9.190;2023-12-20T11:44:46;8.40;99.90
10964;DHT22;5534;48.784;9.190;2023-12-20T11:47:13;8.10;99.90
10964;DHT22;5534;48.784;9.190;2023-12-20T11:49:39;8.10;99.90
10964;DHT22;5534;48.784;9.190;2023-12-20T11:52:05;8.20;99.90
10964;DHT22;5534;48.784;9.190;2023-12-20T11:54:31;8.20;99.90
10964;DHT22;5534;48.784;9.190;2023-12-20T11:56:57;8.10;99.90
10964;DHT22;5534;48.784;9.190;2023-12-20T11:59:23;7.90;99.90
10964;DHT22;5534;48.784;9.190;2023-12-20T12:01:50;7.90;99.90
10964;DHT22;5534;48.784;9.190;2023-12-20T12:04:16;7.80;99.90
10964;DHT22;5534;48.784;9.190;2023-12-20T12:06:44;8.00;99.90
10964;DHT22;5534;48.784;9.190;2023-12-20T12:09:10;7.90;99.90
10964;DHT22;5534;48.784;9.190;2023-12-20T12:11:36;8.00;99.90
10964;DHT22;5534;48.784;9.190;2023-12-20T12:14:02;8.00;99.90
10964;DHT22;5534;48.784;9.190;2023-12-20T12:16:27;8.10;99.90
10964;DHT22;5534;48.784;9.190;2023-12-20T12:18:57;8.20;99.90
10964;DHT22;5534;48.784;9.190;2023-12-20T12:21:23;8.10;99.90
10964;DHT22;5534;48.784;9.190;2023-12-20T12:23:49;8.30;99.90
10964;DHT22;5534;48.784;9.190;2023-12-20T12:26:15;8.20;99.90
10964;DHT22;5534;48.784;9.190;2023-12-20T12:28:41;8.20;99.90
10964;DHT22;5534;48.784;9.190;2023-12-20T12:31:14;8.20;99.90
10964;DHT22;5534;48.784;9.190;2023-12-20T12:33:42;8.20;99.90
10964;DHT22;5534;48.784;9.190;2023-12-20T12:36:10;8.40;99.90
10964;DHT22;5534;48.784;9.190;2023-12-20T12:38:36;8.50;99.90
10964;DHT22;5534;48.784;9.190;2023-12-20T12:41:02;8.50;99.90
10964;DHT22;5534;48.784;9.190;2023-12-20T12:43:29;8.60;99.90
10964;DHT22;5534;48.784;9.190;2023-12-20T12:45:55;8.60;99.90
10964;DHT22;5534;48.784;9.190;2023-12-20T12:48:21;8.50;99.90
10964;DHT22;5534;48.784;9.190;2023-12-20T12:50:47;8.80;99.90
10964;DHT22;5534;48.784;9.190;2023-12-20T12:53:13;9.00;99.90
10964;DHT22;5534;48.784;9.190;2023-12-20T12:55:43;9.00;99.90
10964;DHT22;5534;48.784;9.190;2023-12-20T12:58:09;8.80;99.90
10964;DHT22;5534;48.784;9.190;2023-12-20T13:00:35;9.00;99.90
10964;DHT22;5534;48.784;9.190;2023-12-20T13:03:01;8.80;99.90
10964;DHT22;5534;48.784;9.190;2023-12-20T13:05:26;8.60;99.90
10964;DHT22;5534;48.784;9.190;2023-12-20T13:07:53;8.70;99.90
10964;DHT22;5534;48.784;9.190;2023-12-20T13:10:19;8.80;99.90
10964;DHT22;5534;48.784;9.190;2023-12-20T13:12:45;8.90;99.90
10964;DHT22;5534;48.784;9.190;2023-12-20T13:15:11;8.90;99.90
10964;DHT22;5534;48.784;9.190;2023-12-20T13:17:37;8.80;99.90
10964;DHT22;5534;48.784;9.190;2023-12-20T13:20:03;8.60;99.90
10964;DHT22;5534;48.784;9.190;2023-12-20T13:22:30;8.40;99.90
10964;DHT22;5534;48.784;9.190;2023-12-20T13:24:55;8.40;99.90
10964;DHT22;5534;48.784;9.190;2023-12-20T13:27:21;8.50;99.90
10964;DHT22;5534;48.784;9.190;2023-12-20T13:29:47;8.50;99.90
10964;DHT22;5534;48.784;9.190;2023-12-20T13:32:12;8.60;99.90
10964;DHT22;5534;48.784;9.190;2023-12-20T13:34:38;8.50;99.90
10964;DHT22;5534;48.784;9.190;2023-12-20T13:37:04;8.70;99.90
10964;DHT22;5534;48.784;9.190;2023-12-20T13:39:30;8.80;99.90
10964;DHT22;5534;48.784;9.190;2023-12-20T13:41:56;8.80;99.90
10964;DHT22;5534;48.784;9.190;2023-12-20T13:44:23;8.70;99.90
10964;DHT22;5534;48.784;9.190;2023-12-20T13:46:48;8.60;99.90
10964;DHT22;5534;48.784;9.190;2023-12-20T13:49:15;8.50;99.90
10964;DHT22;5534;48.784;9.190;2023-12-20T13:51:41;8.60;99.90
10964;DHT22;5534;48.784;9.190;2023-12-20T13:54:07;8.30;99.90
10964;DHT22;5534;48.784;9.190;2023-12-20T13:56:34;8.10;99.90
10964;DHT22;5534;48.784;9.190;2023-12-20T13:58:59;8.00;99.90
10964;DHT22;5534;48.784;9.190;2023-12-20T14:01:27;8.30;99.90
10964;DHT22;5534;48.784;9.190;2023-12-20T14:03:52;8.40;99.90
10964;DHT22;5534;48.784;9.190;2023-12-20T14:06:18;8.40;99.90
10964;DHT22;5534;48.784;9.190;2023-12-20T14:08:44;8.40;99.90
10964;DHT22;5534;48.784;9.190;2023-12-20T14:11:10;8.30;99.90
10964;DHT22;5534;48.784;9.190;2023-12-20T14:13:36;8.20;99.90
10964;DHT22;5534;48.784;9.190;2023-12-20T14:16:02;8.20;99.90
10964;DHT22;5534;48.784;9.190;2023-12-20T14:18:29;8.20;99.90
10964;DHT22;5534;48.784;9.190;2023-12-20T14:20:56;8.30;99.90
10964;DHT22;5534;48.784;9.190;2023-12-20T14:23:21;8.40;99.90
10964;DHT22;5534;48.784;9.190;2023-12-20T14:25:48;8.30;99.90
10964;DHT22;5534;48.784;9.190;2023-12-20T14:28:15;8.20;99.90
10964;DHT22;5534;48.784;9.190;2023-12-20T14:30:40;8.20;99.90
10964;DHT22;5534;48.784;9.190;2023-12-20T14:33:06;8.20;99.90
10964;DHT22;5534;48.784;9.190;2023-12-20T14:35:32;8.40;99.90
10964;DHT22;5534;48.784;9.190;2023-12-20T14:37:58;8.10;99.90
10964;DHT22;5534;48.784;9.190;2023-12-20T14:40:24;8.00;99.90
10964;DHT22;5534;48.784;9.190;2023-12-20T14:42:50;7.90;99.90
10964;DHT22;5534;48.784;9.190;2023-12-20T14:45:17;7.90;99.90
10964;DHT22;5534;48.784;9.190;2023-12-20T14:47:43;7.80;99.90
10964;DHT22;5534;48.784;9.190;2023-12-20T14:50:09;7.90;99.90
10964;DHT22;5534;48.784;9.190;2023-12-20T14:52:34;8.00;99.90
10964;DHT22;5534;48.784;9.190;2023-12-20T14:55:01;7.90;99.90
10964;DHT22;5534;48.784;9.190;2023-12-20T14:57:28;8.00;99.90
10964;DHT22;5534;48.784;9.190;2023-12-20T14:59:55;8.00;99.90
10964;DHT22;5534;48.784;9.190;2023-12-20T15:02:21;8.00;99.90
10964;DHT22;5534;48.784;9.190;2023-12-20T15:04:46;7.80;99.90
10964;DHT22;5534;48.784;9.190;2023-12-20T15:07:12;7.80;99.90
10964;DHT22;5534;48.784;9.190;2023-12-20T15:09:38;8.00;99.90
10964;DHT22;5534;48.784;9.190;2023-12-20T15:12:04;8.00;99.90
10964;DHT22;5534;48.784;9.190;2023-12-20T15:14:30;8.00;99.90
10964;DHT22;5534;48.784;9.190;2023-12-20T15:16:56;8.10;99.90
10964;DHT22;5534;48.784;9.190;2023-12-20T15:19:22;8.20;99.90
10964;DHT22;5534;48.784;9.190;2023-12-20T15:21:48;8.20;99.90
10964;DHT22;5534;48.784;9.190;2023-12-20T15:24:14;8.00;99.90
10964;DHT22;5534;48.784;9.190;2023-12-20T15:26:45;8.00;99.90
10964;DHT22;5534;48.784;9.190;2023-12-20T15:29:12;7.90;99.90
10964;DHT22;5534;48.784;9.190;2023-12-20T15:31:48;8.00;99.90
10964;DHT22;5534;48.784;9.190;2023-12-20T15:34:14;8.00;99.90
10964;DHT22;5534;48.784;9.190;2023-12-20T15:36:40;8.10;99.90
10964;DHT22;5534;48.784;9.190;2023-12-20T15:39:06;8.30;99.90
10964;DHT22;5534;48.784;9.190;2023-12-20T15:41:34;8.30;99.90
10964;DHT22;5534;48.784;9.190;2023-12-20T15:44:00;8.30;99.90
10964;DHT22;5534;48.784;9.190;2023-12-20T15:46:26;8.20;99.90
10964;DHT22;5534;48.784;9.190;2023-12-20T15:48:51;8.10;99.90
10964;DHT22;5534;48.784;9.190;2023-12-20T15:51:20;7.90;99.90
10964;DHT22;5534;48.784;9.190;2023-12-20T15:53:46;7.90;99.90
10964;DHT22;5534;48.784;9.190;2023-12-20T15:56:12;7.90;99.90
10964;DHT22;5534;48.784;9.190;2023-12-20T15:58:38;7.90;99.90
10964;DHT22;5534;48.784;9.190;2023-12-20T16:01:03;7.90;99.90
10964;DHT22;5534;48.784;9.190;2023-12-20T16:03:29;7.90;99.90
10964;DHT22;5534;48.784;9.190;2023-12-20T16:05:55;8.00;99.90
10964;DHT22;5534;48.784;9.190;2023-12-20T16:08:21;8.10;99.90
10964;DHT22;5534;48.784;9.190;2023-12-20T16:10:47;7.90;99.90
10964;DHT22;5534;48.784;9.190;2023-12-20T16:13:13;8.00;99.90